Terminal Aerodrome Forecast
Issued by NWS Boston, MA

Home | Current Version | Previous Version | Text Only | Print | Product List | Glossary On
Versions: 1 2 3 4 5 6 7 8 9 10 11 12 13 14 15 16 17 18 19 20 21 22 23 24 25 26 27 28 29 30 31 32 33 34 35 36 37 38 39
000
FTUS41 KBOX 302325
TAFBDL
TAF
KBDL 302325Z 0100/0206 17009KT P6SM SCT070 BKN120
     FM011000 12005KT 3SM SHRA BR OVC020
     FM011600 19008KT P6SM BKN050
     FM011800 21010KT P6SM SCT050 BKN090
     FM020200 24005KT P6SM SCT060=

USA.gov is the U.S. government's official web portal to all federal, state and local government web resources and services.